createdAt,value
2022-08-24T00:01:58.656Z,1.37
2022-08-24T00:04:28.353Z,1.70
2022-08-24T00:07:02.209Z,1.80
2022-08-24T00:09:30.560Z,1.37
2022-08-24T00:11:58.666Z,1.87
2022-08-24T00:14:27.225Z,1.60
2022-08-24T00:16:55.499Z,1.47
2022-08-24T00:19:23.735Z,1.50
2022-08-24T00:21:52.173Z,1.93
2022-08-24T00:24:21.923Z,1.50
2022-08-24T00:26:50.153Z,1.80
2022-08-24T00:29:19.728Z,1.90
2022-08-24T00:31:48.763Z,1.70
2022-08-24T00:34:18.203Z,1.90
2022-08-24T00:36:47.156Z,1.40
2022-08-24T00:39:15.634Z,1.53
2022-08-24T00:41:47.623Z,1.63
2022-08-24T00:44:17.541Z,1.80
2022-08-24T00:46:49.323Z,1.60
2022-08-24T00:49:24.275Z,1.70
2022-08-24T00:51:59.581Z,1.53
2022-08-24T00:54:30.955Z,1.33
2022-08-24T00:57:03.601Z,1.17
2022-08-24T00:59:35.431Z,1.40
2022-08-24T01:02:15.360Z,1.60
2022-08-24T01:04:50.125Z,1.37
2022-08-24T01:07:18.335Z,1.43
2022-08-24T01:09:46.895Z,1.60
2022-08-24T01:12:17.420Z,1.70
2022-08-24T01:14:45.981Z,1.80
2022-08-24T01:17:38.761Z,1.97
2022-08-24T01:20:09.605Z,1.53
2022-08-24T01:23:06.497Z,1.30
2022-08-24T01:25:38.158Z,1.80
2022-08-24T01:28:12.947Z,1.40
2022-08-24T01:30:44.025Z,1.53
2022-08-24T01:33:23.365Z,1.43
2022-08-24T01:35:55.741Z,1.30
2022-08-24T01:38:23.987Z,1.77
2022-08-24T01:40:57.999Z,1.70
2022-08-24T01:43:26.557Z,1.60
2022-08-24T01:45:55.555Z,1.93
2022-08-24T01:48:24.360Z,2.43
2022-08-24T01:50:52.981Z,1.50
2022-08-24T01:53:21.223Z,2.27
2022-08-24T01:55:50.245Z,2.00
2022-08-24T01:58:19.995Z,1.60
2022-08-24T02:00:48.306Z,1.77
2022-08-24T02:03:16.902Z,1.50
2022-08-24T02:05:45.334Z,1.60
2022-08-24T02:08:13.452Z,1.43
2022-08-24T02:10:41.684Z,1.43
2022-08-24T02:13:16.860Z,1.70
2022-08-24T02:15:48.021Z,1.83
2022-08-24T02:18:16.279Z,1.50
2022-08-24T02:20:44.995Z,1.90
2022-08-24T02:23:13.533Z,1.93
2022-08-24T02:25:41.715Z,1.60
2022-08-24T02:28:09.836Z,1.60
2022-08-24T02:30:38.041Z,1.83
2022-08-24T02:33:08.338Z,1.60
2022-08-24T02:35:36.473Z,1.47
2022-08-24T02:38:04.983Z,1.73
2022-08-24T02:40:33.156Z,1.40
2022-08-24T02:43:01.472Z,1.70
2022-08-24T02:45:29.711Z,1.67
2022-08-24T02:47:58.972Z,2.20
2022-08-24T02:50:28.734Z,1.50
2022-08-24T02:52:56.954Z,1.60
2022-08-24T02:55:25.365Z,1.83
2022-08-24T02:57:53.666Z,1.60
2022-08-24T03:00:23.391Z,1.67
2022-08-24T03:02:51.823Z,1.77
2022-08-24T03:05:20.320Z,1.40
2022-08-24T03:07:49.817Z,1.60
2022-08-24T03:10:20.751Z,2.13
2022-08-24T03:12:50.179Z,2.23
2022-08-24T03:15:22.420Z,1.40
2022-08-24T03:17:51.389Z,1.73
2022-08-24T03:20:22.559Z,1.60
2022-08-24T03:22:52.423Z,1.67
2022-08-24T03:25:24.528Z,1.83
2022-08-24T03:27:53.430Z,1.77
2022-08-24T03:30:23.739Z,1.90
2022-08-24T03:32:52.308Z,1.60
2022-08-24T03:35:21.972Z,1.83
2022-08-24T03:37:51.579Z,1.57
2022-08-24T03:40:24.504Z,1.83
2022-08-24T03:42:53.962Z,1.20
2022-08-24T03:45:22.880Z,1.37
2022-08-24T03:47:51.064Z,1.63
2022-08-24T03:50:20.288Z,1.53
2022-08-24T03:52:49.050Z,1.50
2022-08-24T03:55:19.624Z,1.37
2022-08-24T03:57:47.739Z,1.50
2022-08-24T04:00:16.633Z,1.60
2022-08-24T04:02:45.419Z,1.70
2022-08-24T04:05:14.333Z,1.60
2022-08-24T04:07:42.446Z,1.87
2022-08-24T04:10:11.379Z,1.40
2022-08-24T04:12:40.918Z,2.40
2022-08-24T04:15:10.105Z,1.60
2022-08-24T04:17:38.253Z,1.67
2022-08-24T04:20:07.757Z,1.73
2022-08-24T04:22:36.441Z,1.67
2022-08-24T04:25:09.503Z,1.97
2022-08-24T04:27:38.161Z,2.07
2022-08-24T04:30:09.220Z,2.10
2022-08-24T04:32:37.667Z,1.90
2022-08-24T04:35:07.820Z,1.60
2022-08-24T04:37:35.936Z,1.53
2022-08-24T04:40:05.733Z,1.50
2022-08-24T04:42:33.977Z,1.70
2022-08-24T04:45:02.891Z,1.67
2022-08-24T04:47:32.424Z,1.83
2022-08-24T04:50:00.640Z,1.93
2022-08-24T04:52:29.747Z,2.03
2022-08-24T04:54:57.925Z,2.17
2022-08-24T04:57:26.043Z,2.40
2022-08-24T04:59:57.507Z,2.00
2022-08-24T05:02:25.660Z,2.00
2022-08-24T05:04:57.111Z,2.03
2022-08-24T05:07:25.689Z,2.00
2022-08-24T05:09:56.528Z,2.90
2022-08-24T05:12:27.453Z,1.87
2022-08-24T05:14:55.744Z,2.80
2022-08-24T05:17:23.942Z,2.07
2022-08-24T05:19:52.217Z,1.63
2022-08-24T05:22:21.863Z,2.50
2022-08-24T05:24:50.022Z,2.30
2022-08-24T05:27:18.981Z,3.10
2022-08-24T05:29:47.690Z,1.93
2022-08-24T05:32:17.982Z,2.60
2022-08-24T05:34:46.147Z,2.43
2022-08-24T05:37:14.243Z,2.07
2022-08-24T05:39:43.841Z,2.00
2022-08-24T05:42:13.606Z,5.90
2022-08-24T05:44:41.834Z,2.93
2022-08-24T05:47:10.288Z,9.80
2022-08-24T05:49:41.534Z,2.30
2022-08-24T05:52:10.229Z,2.27
2022-08-24T05:54:38.495Z,1.90
2022-08-24T05:57:08.020Z,3.77
2022-08-24T05:59:36.299Z,2.13
2022-08-24T06:02:04.635Z,2.20
2022-08-24T06:04:32.881Z,1.93
2022-08-24T06:07:00.988Z,2.00
2022-08-24T06:09:29.272Z,1.47
2022-08-24T06:11:57.364Z,1.90
2022-08-24T06:14:27.256Z,1.67
2022-08-24T06:16:55.547Z,2.00
2022-08-24T06:19:24.703Z,2.57
2022-08-24T06:21:54.148Z,1.50
2022-08-24T06:24:45.404Z,1.70
2022-08-24T06:27:22.318Z,1.83
2022-08-24T06:29:53.948Z,2.20
2022-08-24T06:32:22.580Z,1.80
2022-08-24T06:34:50.825Z,2.03
2022-08-24T06:37:19.367Z,1.60
2022-08-24T06:39:48.440Z,1.97
2022-08-24T06:42:24.619Z,1.70
2022-08-24T06:44:54.197Z,1.70
2022-08-24T06:47:22.851Z,1.40
2022-08-24T06:49:51.249Z,1.50
2022-08-24T06:52:19.385Z,1.90
2022-08-24T06:54:47.616Z,1.20
2022-08-24T06:57:15.718Z,1.30
2022-08-24T06:59:44.789Z,1.60
2022-08-24T07:02:16.195Z,1.70
2022-08-24T07:04:44.374Z,1.50
2022-08-24T07:07:12.569Z,1.60
2022-08-24T07:09:41.044Z,2.33
2022-08-24T07:12:09.526Z,1.43
2022-08-24T07:14:37.712Z,1.70
2022-08-24T07:17:06.087Z,1.80
2022-08-24T07:19:35.811Z,1.63
2022-08-24T07:22:03.935Z,1.80
2022-08-24T07:24:32.302Z,1.20
2022-08-24T07:27:00.479Z,1.63
2022-08-24T07:29:47.322Z,1.47
2022-08-24T07:32:16.840Z,1.40
2022-08-24T07:34:46.521Z,1.20
2022-08-24T07:37:14.616Z,1.80
2022-08-24T07:39:42.902Z,1.50
2022-08-24T07:42:15.888Z,1.50
2022-08-24T07:44:47.361Z,1.40
2022-08-24T07:47:36.945Z,1.67
2022-08-24T07:50:05.841Z,1.60
2022-08-24T07:52:34.240Z,1.47
2022-08-24T07:55:02.591Z,1.40
2022-08-24T07:57:30.979Z,1.17
2022-08-24T08:00:00.594Z,1.40
2022-08-24T08:02:29.362Z,1.63
2022-08-24T08:05:05.202Z,1.90
2022-08-24T08:07:33.517Z,2.00
2022-08-24T08:10:03.163Z,1.60
2022-08-24T08:12:31.273Z,2.00
2022-08-24T08:14:59.489Z,1.27
2022-08-24T08:17:27.661Z,1.27
2022-08-24T08:19:55.915Z,1.50
2022-08-24T08:22:42.748Z,1.77
2022-08-24T08:25:11.163Z,1.23
2022-08-24T08:27:39.298Z,1.60
2022-08-24T08:30:08.851Z,1.37
2022-08-24T08:32:36.992Z,1.40
2022-08-24T08:35:06.007Z,1.60
2022-08-24T08:40:06.783Z,1.50
2022-08-24T08:42:53.720Z,1.80
2022-08-24T08:45:48.948Z,1.50
2022-08-24T08:48:51.431Z,2.20
2022-08-24T08:51:46.892Z,1.70
2022-08-24T08:54:43.857Z,1.93
2022-08-24T08:57:33.672Z,1.67
2022-08-24T09:00:16.938Z,1.50
2022-08-24T09:03:00.151Z,1.50
2022-08-24T09:08:40.256Z,1.50
2022-08-24T09:11:22.664Z,1.60
2022-08-24T09:14:05.399Z,1.50
2022-08-24T09:16:50.275Z,1.43
2022-08-24T09:19:33.936Z,1.43
2022-08-24T09:22:13.377Z,1.60
2022-08-24T09:25:09.077Z,1.70
2022-08-24T09:27:54.192Z,1.40
2022-08-24T09:30:25.728Z,1.43
2022-08-24T09:33:06.547Z,1.20
2022-08-24T09:35:52.620Z,1.13
2022-08-24T09:38:28.417Z,1.90
2022-08-24T09:41:19.244Z,1.70
2022-08-24T09:44:16.607Z,2.93
2022-08-24T09:47:13.695Z,3.90
2022-08-24T09:50:07.763Z,2.77
2022-08-24T09:53:15.980Z,3.33
2022-08-24T09:56:34.949Z,2.63
2022-08-24T09:59:21.712Z,1.83
2022-08-24T10:02:16.088Z,2.33
2022-08-24T10:04:57.585Z,1.80
2022-08-24T10:07:32.634Z,2.03
2022-08-24T10:10:23.043Z,1.87
2022-08-24T10:13:03.506Z,2.13
2022-08-24T10:15:39.565Z,2.10
2022-08-24T10:18:25.328Z,2.20
2022-08-24T10:21:13.911Z,2.00
2022-08-24T10:23:55.158Z,2.43
2022-08-24T10:26:33.445Z,1.70
2022-08-24T10:29:18.336Z,2.10
2022-08-24T10:31:59.888Z,2.07
2022-08-24T10:34:47.461Z,1.97
2022-08-24T10:37:42.205Z,1.60
2022-08-24T10:40:40.333Z,1.80
2022-08-24T10:43:47.537Z,2.00
2022-08-24T10:46:38.326Z,1.73
2022-08-24T10:49:57.902Z,1.63
2022-08-24T10:53:05.737Z,1.97
2022-08-24T10:55:36.210Z,1.73
2022-08-24T10:58:45.761Z,1.73
2022-08-24T11:01:24.722Z,1.57
2022-08-24T11:03:57.412Z,1.50
2022-08-24T11:06:31.952Z,1.80
2022-08-24T11:09:03.593Z,1.40
2022-08-24T11:11:34.510Z,1.23
2022-08-24T11:14:06.469Z,1.53
2022-08-24T11:16:40.774Z,1.60
2022-08-24T11:19:13.144Z,3.17
2022-08-24T11:21:52.016Z,3.30
2022-08-24T11:24:31.439Z,2.17
2022-08-24T11:27:02.958Z,2.00
2022-08-24T11:29:54.845Z,2.50
2022-08-24T11:32:32.451Z,2.30
2022-08-24T11:35:08.595Z,2.90
2022-08-24T11:37:40.265Z,3.27
2022-08-24T11:40:10.437Z,6.50
2022-08-24T11:43:01.237Z,3.57
2022-08-24T11:45:38.401Z,3.30
2022-08-24T11:48:24.670Z,4.43
2022-08-24T11:51:01.091Z,5.60
2022-08-24T11:56:25.569Z,3.90
2022-08-24T11:59:00.734Z,2.70
2022-08-24T12:01:33.953Z,2.40
2022-08-24T12:04:13.594Z,1.40
2022-08-24T12:06:55.854Z,1.50
2022-08-24T12:09:44.513Z,1.60
2022-08-24T12:12:17.989Z,1.27
2022-08-24T12:14:51.684Z,1.33
2022-08-24T12:17:27.640Z,1.73
2022-08-24T12:20:01.332Z,1.43
2022-08-24T12:22:31.013Z,1.07
2022-08-24T12:25:24.108Z,1.40
2022-08-24T12:27:53.506Z,1.70
2022-08-24T12:30:21.903Z,1.20
2022-08-24T12:32:54.857Z,1.20
2022-08-24T12:35:28.386Z,1.40
2022-08-24T12:38:02.446Z,1.40
2022-08-24T12:40:37.139Z,1.37
2022-08-24T12:43:08.708Z,1.60
2022-08-24T12:45:37.929Z,1.70
2022-08-24T12:48:11.742Z,1.47
2022-08-24T12:50:46.621Z,1.33
2022-08-24T12:53:40.431Z,1.20
2022-08-24T12:56:32.723Z,1.43
2022-08-24T12:59:06.681Z,1.50
2022-08-24T13:01:37.195Z,1.57
2022-08-24T13:04:17.493Z,1.33
2022-08-24T13:06:51.005Z,1.40
2022-08-24T13:09:32.380Z,1.20
2022-08-24T13:12:41.432Z,1.50
2022-08-24T13:15:28.073Z,1.60
2022-08-24T13:18:02.944Z,1.37
2022-08-24T13:20:56.036Z,1.90
2022-08-24T13:23:25.166Z,1.77
2022-08-24T13:25:58.610Z,1.40
2022-08-24T13:28:40.930Z,1.53
2022-08-24T13:31:28.726Z,1.60
2022-08-24T13:34:01.199Z,1.50
2022-08-24T13:36:51.591Z,1.60
2022-08-24T13:39:50.974Z,1.50
2022-08-24T13:42:31.387Z,1.50
2022-08-24T13:45:17.900Z,1.50
2022-08-24T13:47:53.488Z,1.30
2022-08-24T13:50:41.191Z,1.60
2022-08-24T13:53:43.089Z,1.20
2022-08-24T13:56:32.597Z,1.30
2022-08-24T13:59:10.256Z,1.27
2022-08-24T14:01:58.888Z,1.20
2022-08-24T14:04:46.236Z,1.30
2022-08-24T14:07:21.153Z,1.73
2022-08-24T14:10:02.835Z,1.50
2022-08-24T14:12:51.286Z,1.30
2022-08-24T14:15:27.597Z,1.23
2022-08-24T14:18:09.492Z,1.70
2022-08-24T14:21:03.251Z,1.30
2022-08-24T14:23:52.623Z,1.80
2022-08-24T14:26:57.921Z,1.60
2022-08-24T14:29:39.315Z,1.93
2022-08-24T14:32:45.180Z,1.50
2022-08-24T14:35:30.139Z,1.40
2022-08-24T14:38:28.022Z,1.70
2022-08-24T14:41:20.480Z,1.30
2022-08-24T14:44:06.853Z,1.63
2022-08-24T14:46:45.559Z,1.87
2022-08-24T14:49:21.433Z,1.50
2022-08-24T14:52:17.823Z,1.50
2022-08-24T14:55:05.161Z,1.80
2022-08-24T14:58:15.631Z,1.80
2022-08-24T15:01:04.063Z,1.80
2022-08-24T15:04:00.065Z,1.40
2022-08-24T15:06:36.589Z,1.70
2022-08-24T15:09:11.336Z,1.60
2022-08-24T15:11:42.364Z,1.77
2022-08-24T15:14:22.545Z,1.40
2022-08-24T15:16:55.390Z,1.40
2022-08-24T15:19:30.747Z,1.70
2022-08-24T15:22:02.988Z,1.47
2022-08-24T15:24:40.658Z,1.90
2022-08-24T15:27:23.796Z,1.57
2022-08-24T15:29:56.417Z,1.93
2022-08-24T15:32:28.614Z,1.63
2022-08-24T15:34:59.258Z,1.80
2022-08-24T15:37:31.858Z,1.50
2022-08-24T15:40:02.137Z,1.43
2022-08-24T15:42:33.524Z,1.73
2022-08-24T15:45:04.229Z,1.53
2022-08-24T15:47:35.867Z,1.90
2022-08-24T15:50:08.188Z,1.47
2022-08-24T15:52:51.091Z,1.07
2022-08-24T15:55:39.768Z,1.60
2022-08-24T15:58:42.088Z,1.70
2022-08-24T16:01:43.004Z,1.60
2022-08-24T16:04:36.176Z,1.60
2022-08-24T16:07:04.557Z,1.70
2022-08-24T16:09:38.711Z,1.87
2022-08-24T16:12:12.828Z,1.47
2022-08-24T16:14:47.049Z,1.30
2022-08-24T16:17:30.248Z,1.70
2022-08-24T16:20:01.939Z,1.60
2022-08-24T16:22:35.688Z,1.50
2022-08-24T16:25:22.784Z,1.83
2022-08-24T16:28:11.329Z,1.80
2022-08-24T16:30:47.440Z,1.40
2022-08-24T16:33:43.601Z,1.80
2022-08-24T16:36:15.279Z,1.50
2022-08-24T16:38:50.047Z,1.70
2022-08-24T16:41:20.388Z,2.07
2022-08-24T16:43:50.083Z,1.90
2022-08-24T16:46:21.642Z,2.20
2022-08-24T16:48:49.975Z,2.20
2022-08-24T16:51:18.117Z,2.93
2022-08-24T16:53:46.270Z,2.10
2022-08-24T16:56:16.655Z,2.60
2022-08-24T16:58:47.457Z,1.70
2022-08-24T17:01:17.679Z,1.83
2022-08-24T17:03:45.950Z,2.70
2022-08-24T17:06:15.305Z,2.07
2022-08-24T17:08:43.624Z,2.07
2022-08-24T17:11:12.671Z,1.90
2022-08-24T17:13:50.150Z,1.90
2022-08-24T17:16:22.429Z,1.83
2022-08-24T17:18:50.608Z,1.63
2022-08-24T17:21:19.435Z,2.23
2022-08-24T17:23:48.330Z,2.30
2022-08-24T17:26:20.593Z,1.90
2022-08-24T17:28:51.762Z,2.03
2022-08-24T17:31:24.559Z,2.27
2022-08-24T17:33:53.411Z,2.07
2022-08-24T17:36:24.081Z,2.27
2022-08-24T17:38:55.950Z,2.07
2022-08-24T17:41:25.047Z,2.47
2022-08-24T17:43:53.373Z,2.10
2022-08-24T17:46:24.041Z,2.37
2022-08-24T17:48:52.261Z,3.10
2022-08-24T17:51:20.528Z,3.03
2022-08-24T17:53:48.881Z,2.47
2022-08-24T17:56:18.741Z,3.03
2022-08-24T17:59:09.952Z,3.13
2022-08-24T18:01:39.457Z,2.50
2022-08-24T18:04:07.646Z,3.30
2022-08-24T18:06:35.819Z,2.80
2022-08-24T18:09:07.416Z,2.87
2022-08-24T18:11:35.982Z,3.00
2022-08-24T18:14:04.120Z,3.40
2022-08-24T18:16:32.374Z,3.30
2022-08-24T18:19:02.823Z,3.43
2022-08-24T18:21:30.939Z,2.90
2022-08-24T18:24:01.405Z,3.47
2022-08-24T18:26:31.280Z,3.30
2022-08-24T18:29:07.536Z,2.93
2022-08-24T18:31:36.591Z,3.73
2022-08-24T18:34:06.508Z,2.77
2022-08-24T18:36:34.777Z,2.90
2022-08-24T18:39:06.981Z,3.43
2022-08-24T18:41:39.073Z,3.10
2022-08-24T18:44:09.211Z,3.33
2022-08-24T18:46:43.733Z,3.37
2022-08-24T18:49:13.552Z,2.87
2022-08-24T18:51:42.165Z,3.43
2022-08-24T18:54:14.112Z,3.57
2022-08-24T18:56:42.324Z,3.03
2022-08-24T18:59:12.455Z,3.00
2022-08-24T19:01:54.674Z,3.17
2022-08-24T19:04:25.863Z,3.90
2022-08-24T19:07:01.808Z,3.43
2022-08-24T19:09:34.214Z,3.50
2022-08-24T19:12:03.024Z,4.03
2022-08-24T19:14:31.238Z,3.70
2022-08-24T19:16:59.351Z,3.17
2022-08-24T19:19:28.961Z,2.83
2022-08-24T19:21:57.085Z,2.73
2022-08-24T19:24:28.515Z,3.00
2022-08-24T19:26:56.763Z,2.93
2022-08-24T19:29:54.583Z,3.03
2022-08-24T19:32:23.249Z,2.93
2022-08-24T19:34:53.295Z,2.70
2022-08-24T19:37:22.282Z,3.17
2022-08-24T19:39:51.189Z,2.87
2022-08-24T19:42:19.583Z,2.77
2022-08-24T19:45:05.318Z,2.70
2022-08-24T19:47:34.632Z,3.27
2022-08-24T19:50:07.780Z,2.00
2022-08-24T19:52:36.551Z,2.73
2022-08-24T19:55:06.383Z,3.13
2022-08-24T19:57:43.464Z,3.37
2022-08-24T20:00:26.518Z,2.77
2022-08-24T20:02:56.181Z,2.77
2022-08-24T20:05:28.287Z,2.40
2022-08-24T20:07:57.637Z,3.20
2022-08-24T20:10:27.013Z,2.23
2022-08-24T20:12:55.199Z,2.30
2022-08-24T20:15:25.008Z,2.63
2022-08-24T20:17:56.480Z,2.30
2022-08-24T20:20:27.767Z,2.80
2022-08-24T20:22:56.356Z,2.70
2022-08-24T20:25:24.717Z,2.77
2022-08-24T20:28:12.592Z,2.63
2022-08-24T20:30:43.189Z,2.70
2022-08-24T20:33:15.449Z,2.10
2022-08-24T20:35:45.461Z,3.17
2022-08-24T20:38:15.508Z,2.37
2022-08-24T20:40:43.676Z,2.90
2022-08-24T20:43:12.793Z,2.80
2022-08-24T20:45:42.106Z,2.43
2022-08-24T20:48:13.068Z,2.57
2022-08-24T20:50:43.488Z,3.03
2022-08-24T20:53:13.375Z,3.33
2022-08-24T20:55:42.238Z,3.03
2022-08-24T20:58:11.133Z,3.63
2022-08-24T21:00:41.008Z,2.67
2022-08-24T21:03:09.265Z,3.77
2022-08-24T21:05:37.662Z,2.90
2022-08-24T21:08:06.995Z,2.67
2022-08-24T21:10:36.619Z,2.90
2022-08-24T21:13:05.372Z,3.00
2022-08-24T21:15:34.503Z,3.20
2022-08-24T21:18:03.386Z,3.07
2022-08-24T21:20:32.689Z,2.90
2022-08-24T21:23:00.897Z,3.00
2022-08-24T21:25:29.030Z,2.90
2022-08-24T21:28:02.348Z,3.23
2022-08-24T21:30:31.300Z,3.10
2022-08-24T21:33:24.407Z,3.13
2022-08-24T21:35:54.896Z,2.20
2022-08-24T21:38:23.361Z,2.53
2022-08-24T21:40:53.595Z,3.43
2022-08-24T21:43:23.036Z,2.47
2022-08-24T21:45:52.332Z,3.13
2022-08-24T21:48:20.751Z,3.13
2022-08-24T21:50:49.404Z,2.87
2022-08-24T21:53:17.901Z,2.57
2022-08-24T21:55:46.387Z,2.70
2022-08-24T21:58:14.506Z,2.80
2022-08-24T22:00:44.070Z,3.80
2022-08-24T22:03:12.259Z,2.60
2022-08-24T22:05:40.542Z,2.80
2022-08-24T22:08:09.009Z,2.70
2022-08-24T22:10:37.673Z,3.03
2022-08-24T22:13:06.358Z,2.97
2022-08-24T22:15:34.749Z,2.77
2022-08-24T22:18:04.461Z,3.37
2022-08-24T22:20:32.908Z,2.50
2022-08-24T22:23:01.057Z,2.90
2022-08-24T22:25:30.080Z,2.73
2022-08-24T22:27:58.179Z,2.60
2022-08-24T22:30:26.357Z,3.10
2022-08-24T22:32:54.537Z,2.97
2022-08-24T22:35:24.197Z,2.67
2022-08-24T22:37:52.330Z,3.13
2022-08-24T22:40:20.759Z,2.70
2022-08-24T22:42:48.899Z,2.20
2022-08-24T22:45:17.103Z,2.47
2022-08-24T22:47:45.233Z,3.00
2022-08-24T22:50:13.423Z,2.70
2022-08-24T22:52:42.891Z,2.80
2022-08-24T22:55:12.072Z,2.40
2022-08-24T22:57:40.170Z,3.17
2022-08-24T23:00:10.650Z,2.70
2022-08-24T23:02:43.176Z,2.80
2022-08-24T23:05:11.700Z,2.70
2022-08-24T23:07:39.859Z,2.20
2022-08-24T23:10:12.233Z,2.87
2022-08-24T23:12:40.336Z,2.87
2022-08-24T23:15:09.556Z,2.80
2022-08-24T23:17:37.737Z,2.30
2022-08-24T23:20:07.748Z,3.13
2022-08-24T23:22:38.675Z,2.57
2022-08-24T23:25:07.745Z,2.90
2022-08-24T23:27:38.522Z,2.40
2022-08-24T23:30:09.950Z,2.63
2022-08-24T23:32:38.445Z,2.90
2022-08-24T23:35:07.723Z,3.23
2022-08-24T23:37:35.887Z,3.13
2022-08-24T23:40:05.483Z,2.67
2022-08-24T23:42:33.637Z,2.77
2022-08-24T23:45:03.226Z,3.87
2022-08-24T23:47:35.878Z,3.10
2022-08-24T23:50:06.704Z,2.80
2022-08-24T23:52:39.900Z,2.63
2022-08-24T23:55:21.158Z,2.83
2022-08-24T23:57:50.875Z,2.77
